Time;durP1;ratioP1;P1;durP2;ratioP2;P2;SDS_P1;SDS_P2;PMS_P1;PMS_P2;Temp;Humidity;BMP_temperature;BMP_pressure;BME280_temperature;BME280_humidity;BME280_pressure;Samples;Min_cycle;Max_cycle;Signal;HPM_P1;HPM_P2
2023/08/11 00:00:26;;;;;;;9.30;2.70;;;;;;;;;;5006249;28;20631;-71
2023/08/11 00:02:52;;;;;;;10.98;3.00;;;;;;;;;;5021079;28;20684;-71
2023/08/11 00:05:19;;;;;;;9.35;2.28;;;;;;;;;;5023600;28;20033;-70
2023/08/11 00:07:46;;;;;;;12.05;2.75;;;;;;;;;;5024296;28;20353;-70
2023/08/11 00:10:12;;;;;;;13.18;3.10;;;;;;;;;;5021291;28;20474;-71
2023/08/11 00:12:39;;;;;;;10.23;2.70;;;;;;;;;;5004836;28;20080;-70
2023/08/11 00:15:06;;;;;;;10.98;2.95;;;;;;;;;;5018295;28;20027;-71
2023/08/11 00:17:33;;;;;;;11.00;2.97;;;;;;;;;;5000857;28;20025;-70
2023/08/11 00:19:59;;;;;;;13.25;2.75;;;;;;;;;;5020109;28;20543;-71
2023/08/11 00:22:25;;;;;;;9.50;2.72;;;;;;;;;;5021719;28;20542;-70
2023/08/11 00:24:51;;;;;;;10.75;3.08;;;;;;;;;;5008709;28;20036;-70
2023/08/11 00:27:18;;;;;;;11.18;2.83;;;;;;;;;;5014484;28;20033;-71
2023/08/11 00:29:45;;;;;;;12.77;2.92;;;;;;;;;;5021439;28;20036;-71
2023/08/11 00:32:11;;;;;;;9.45;2.65;;;;;;;;;;5017290;28;20033;-71
2023/08/11 00:34:37;;;;;;;12.10;3.10;;;;;;;;;;5010075;28;20395;-71
2023/08/11 00:37:04;;;;;;;12.85;3.25;;;;;;;;;;5017376;28;20116;-71
2023/08/11 00:39:30;;;;;;;10.57;2.47;;;;;;;;;;5006389;28;20025;-70
2023/08/11 00:41:56;;;;;;;9.40;2.33;;;;;;;;;;5017817;28;20033;-71
2023/08/11 00:44:22;;;;;;;11.13;2.63;;;;;;;;;;5019885;28;20037;-71
2023/08/11 00:46:48;;;;;;;12.13;2.90;;;;;;;;;;5021722;28;20470;-71
2023/08/11 00:49:15;;;;;;;10.30;2.70;;;;;;;;;;5017447;28;20040;-71
2023/08/11 00:51:41;;;;;;;8.65;2.35;;;;;;;;;;5002601;28;20032;-73
2023/08/11 00:54:08;;;;;;;9.98;2.53;;;;;;;;;;5002488;28;20140;-71
2023/08/11 00:56:34;;;;;;;9.50;2.28;;;;;;;;;;5019990;28;20021;-70
2023/08/11 00:59:00;;;;;;;9.52;2.40;;;;;;;;;;5021388;28;20024;-71
2023/08/11 01:01:27;;;;;;;7.80;2.17;;;;;;;;;;5017794;28;20459;-71
2023/08/11 01:03:53;;;;;;;10.57;2.50;;;;;;;;;;5001950;28;20039;-70
2023/08/11 01:06:25;;;;;;;9.25;2.17;;;;;;;;;;5001789;28;20087;-70
2023/08/11 01:09:10;;;;;;;8.35;2.10;;;;;;;;;;5018723;28;20031;-72
2023/08/11 01:11:56;;;;;;;10.13;2.30;;;;;;;;;;5019097;28;20234;-71
2023/08/11 01:14:28;;;;;;;11.93;2.70;;;;;;;;;;5021754;28;20719;-71
2023/08/11 01:16:54;;;;;;;7.07;1.88;;;;;;;;;;5019383;28;20052;-70
2023/08/11 01:19:28;;;;;;;8.02;2.22;;;;;;;;;;5006633;28;20035;-70
2023/08/11 01:21:56;;;;;;;7.35;2.25;;;;;;;;;;5021377;28;20036;-70
2023/08/11 01:24:22;;;;;;;6.70;2.00;;;;;;;;;;5021783;28;20143;-71
2023/08/11 01:26:49;;;;;;;6.95;1.88;;;;;;;;;;5005125;28;20307;-71
2023/08/11 01:29:15;;;;;;;7.43;1.90;;;;;;;;;;5017719;28;20573;-71
2023/08/11 01:31:41;;;;;;;8.23;1.80;;;;;;;;;;5003639;28;20415;-71
2023/08/11 01:34:07;;;;;;;9.60;2.13;;;;;;;;;;4996875;28;20160;-71
2023/08/11 01:36:33;;;;;;;8.95;2.17;;;;;;;;;;5018390;28;20099;-71
2023/08/11 01:38:59;;;;;;;7.63;2.10;;;;;;;;;;4999698;28;20305;-70
2023/08/11 01:41:26;;;;;;;7.75;2.00;;;;;;;;;;5004649;28;20321;-71
2023/08/11 01:43:52;;;;;;;7.82;2.00;;;;;;;;;;5000576;28;20444;-70
2023/08/11 01:46:19;;;;;;;7.22;2.03;;;;;;;;;;5002549;28;20036;-70
2023/08/11 01:48:46;;;;;;;7.85;2.50;;;;;;;;;;5020493;28;20114;-70
2023/08/11 01:51:12;;;;;;;7.45;2.13;;;;;;;;;;5016686;28;20627;-70
2023/08/11 01:53:38;;;;;;;9.82;2.25;;;;;;;;;;4998819;28;20421;-70
2023/08/11 01:56:05;;;;;;;9.23;2.25;;;;;;;;;;5016383;28;20026;-72
2023/08/11 01:58:31;;;;;;;7.60;2.20;;;;;;;;;;5016336;28;20502;-71
2023/08/11 02:00:57;;;;;;;8.63;2.20;;;;;;;;;;5016561;28;20101;-72
2023/08/11 02:03:24;;;;;;;8.82;2.55;;;;;;;;;;5003237;28;20062;-72
2023/08/11 02:05:50;;;;;;;9.00;2.50;;;;;;;;;;5016959;28;20483;-71
2023/08/11 02:08:17;;;;;;;7.32;2.60;;;;;;;;;;5020202;28;20025;-72
2023/08/11 02:10:45;;;;;;;10.73;2.70;;;;;;;;;;5020479;28;20331;-72
2023/08/11 02:13:12;;;;;;;9.13;2.67;;;;;;;;;;5015602;28;20029;-73
2023/08/11 02:15:38;;;;;;;9.13;2.83;;;;;;;;;;5019884;28;20017;-72
2023/08/11 02:18:04;;;;;;;8.95;2.60;;;;;;;;;;5019359;28;20136;-72
2023/08/11 02:20:32;;;;;;;9.45;2.60;;;;;;;;;;5023236;28;20017;-72
2023/08/11 02:22:59;;;;;;;12.65;2.92;;;;;;;;;;5016728;28;20077;-72
2023/08/11 02:25:28;;;;;;;13.50;3.00;;;;;;;;;;5021301;28;20037;-72
2023/08/11 02:27:54;;;;;;;11.60;3.20;;;;;;;;;;5020791;28;20059;-71
2023/08/11 02:30:22;;;;;;;11.88;2.97;;;;;;;;;;5021308;28;20158;-72
2023/08/11 02:32:48;;;;;;;11.38;3.28;;;;;;;;;;5018156;28;20385;-69
2023/08/11 02:35:15;;;;;;;9.88;2.80;;;;;;;;;;5002500;28;20679;-71
2023/08/11 02:37:41;;;;;;;9.68;3.22;;;;;;;;;;5016637;28;20060;-70
2023/08/11 02:40:09;;;;;;;10.07;3.00;;;;;;;;;;5001945;28;20033;-70
2023/08/11 02:42:38;;;;;;;12.98;3.40;;;;;;;;;;5023403;28;20052;-70
2023/08/11 02:45:04;;;;;;;11.77;3.35;;;;;;;;;;5000795;28;20036;-70
2023/08/11 02:47:31;;;;;;;13.30;3.03;;;;;;;;;;5017476;28;20025;-70
2023/08/11 02:49:57;;;;;;;11.30;3.45;;;;;;;;;;5000130;28;20045;-69
2023/08/11 02:52:23;;;;;;;13.07;3.33;;;;;;;;;;5021961;28;20039;-71
2023/08/11 02:54:49;;;;;;;9.32;3.53;;;;;;;;;;5021578;28;20065;-71
2023/08/11 02:57:16;;;;;;;11.60;3.35;;;;;;;;;;5000523;28;20028;-70
2023/08/11 02:59:44;;;;;;;11.95;3.38;;;;;;;;;;5006561;28;20376;-70
2023/08/11 03:02:11;;;;;;;14.43;3.38;;;;;;;;;;5016434;28;20061;-70
2023/08/11 03:04:37;;;;;;;12.13;3.33;;;;;;;;;;5005235;28;20033;-70
2023/08/11 03:07:05;;;;;;;10.80;3.30;;;;;;;;;;4999684;28;20364;-70
2023/08/11 03:09:31;;;;;;;10.63;3.50;;;;;;;;;;5021315;28;20048;-70
2023/08/11 03:11:58;;;;;;;10.50;3.47;;;;;;;;;;5018539;28;20420;-70
2023/08/11 03:14:24;;;;;;;12.85;3.65;;;;;;;;;;5018609;28;20124;-70
2023/08/11 03:16:50;;;;;;;13.38;3.53;;;;;;;;;;5003469;28;20631;-70
2023/08/11 03:19:16;;;;;;;15.05;3.65;;;;;;;;;;5000314;28;20497;-70
2023/08/11 03:21:42;;;;;;;13.13;3.58;;;;;;;;;;5020778;28;20028;-70
2023/08/11 03:24:09;;;;;;;12.30;3.53;;;;;;;;;;5002041;28;20383;-70
2023/08/11 03:26:35;;;;;;;11.40;3.40;;;;;;;;;;5018414;28;20020;-70
2023/08/11 03:29:01;;;;;;;11.00;3.33;;;;;;;;;;5001378;28;20156;-72
2023/08/11 03:31:27;;;;;;;12.93;3.65;;;;;;;;;;5021426;28;20052;-70
2023/08/11 03:33:54;;;;;;;12.35;3.20;;;;;;;;;;5017399;28;20060;-70
2023/08/11 03:36:20;;;;;;;12.90;3.45;;;;;;;;;;5019183;28;20032;-70
2023/08/11 03:38:46;;;;;;;9.57;3.17;;;;;;;;;;5020639;28;20040;-70
2023/08/11 03:41:12;;;;;;;12.60;3.67;;;;;;;;;;5018584;28;20028;-70
2023/08/11 03:43:38;;;;;;;11.95;3.67;;;;;;;;;;5023858;28;20039;-69
2023/08/11 03:46:05;;;;;;;14.55;3.70;;;;;;;;;;5017200;28;21011;-71
2023/08/11 03:48:31;;;;;;;11.95;3.65;;;;;;;;;;5018933;28;20817;-70
2023/08/11 03:51:01;;;;;;;12.93;3.60;;;;;;;;;;5015584;28;20657;-70
2023/08/11 03:53:27;;;;;;;12.68;3.63;;;;;;;;;;5003902;28;20422;-70
2023/08/11 03:55:54;;;;;;;12.40;3.95;;;;;;;;;;4999740;28;20512;-70
2023/08/11 03:58:24;;;;;;;10.57;3.60;;;;;;;;;;5019125;28;20039;-72
2023/08/11 04:00:50;;;;;;;12.27;3.78;;;;;;;;;;5021178;28;20035;-71
2023/08/11 04:03:16;;;;;;;11.63;3.63;;;;;;;;;;5017166;28;20137;-70
2023/08/11 04:05:42;;;;;;;13.27;3.83;;;;;;;;;;5003430;28;20037;-72
2023/08/11 04:08:09;;;;;;;11.52;3.63;;;;;;;;;;5015253;28;20033;-71
2023/08/11 04:10:35;;;;;;;15.35;4.55;;;;;;;;;;5017263;28;20025;-71
2023/08/11 04:13:02;;;;;;;14.63;3.97;;;;;;;;;;5019263;28;20037;-70
2023/08/11 04:15:28;;;;;;;12.30;3.78;;;;;;;;;;5018865;28;20183;-71
2023/08/11 04:17:54;;;;;;;14.65;3.65;;;;;;;;;;5001019;28;20253;-71
2023/08/11 04:20:22;;;;;;;16.05;4.05;;;;;;;;;;5003251;28;20021;-71
2023/08/11 04:22:48;;;;;;;18.90;4.13;;;;;;;;;;5020805;28;20344;-71
2023/08/11 04:25:14;;;;;;;13.50;4.28;;;;;;;;;;5015998;28;20399;-70
2023/08/11 04:27:41;;;;;;;13.30;4.35;;;;;;;;;;5003216;28;20033;-71
2023/08/11 04:30:07;;;;;;;13.93;4.03;;;;;;;;;;5000383;28;20359;-71
2023/08/11 04:32:34;;;;;;;13.60;4.55;;;;;;;;;;5017841;28;20041;-71
2023/08/11 04:35:00;;;;;;;13.25;4.60;;;;;;;;;;5003942;28;20380;-71
2023/08/11 04:37:26;;;;;;;12.48;4.25;;;;;;;;;;5025300;28;20040;-70
2023/08/11 04:39:53;;;;;;;12.38;4.40;;;;;;;;;;5024525;28;20577;-70
2023/08/11 04:42:20;;;;;;;11.90;4.13;;;;;;;;;;5008288;28;20086;-71
2023/08/11 04:44:46;;;;;;;16.65;4.15;;;;;;;;;;5023575;28;20671;-71
2023/08/11 04:47:12;;;;;;;13.10;3.97;;;;;;;;;;5021061;28;20164;-71
2023/08/11 04:49:38;;;;;;;16.13;4.60;;;;;;;;;;5026542;28;20021;-70
2023/08/11 04:52:04;;;;;;;14.50;4.30;;;;;;;;;;5002487;28;20075;-73
2023/08/11 04:54:30;;;;;;;12.80;4.10;;;;;;;;;;5026163;28;20351;-70
2023/08/11 04:56:56;;;;;;;13.30;4.40;;;;;;;;;;5021891;28;20040;-71
2023/08/11 04:59:22;;;;;;;15.52;4.25;;;;;;;;;;5022410;28;20076;-71
2023/08/11 05:01:49;;;;;;;15.05;4.78;;;;;;;;;;5022822;28;20037;-70
2023/08/11 05:04:15;;;;;;;16.35;4.60;;;;;;;;;;5019580;28;20330;-70
2023/08/11 05:06:41;;;;;;;17.20;4.80;;;;;;;;;;5018526;28;20051;-70
2023/08/11 05:09:07;;;;;;;15.43;4.47;;;;;;;;;;4998330;28;20032;-70
2023/08/11 05:11:33;;;;;;;14.25;4.28;;;;;;;;;;5020745;28;20562;-70
2023/08/11 05:14:00;;;;;;;13.80;4.32;;;;;;;;;;5001381;28;20040;-72
2023/08/11 05:16:26;;;;;;;17.85;4.40;;;;;;;;;;5022403;28;20024;-72
2023/08/11 05:18:52;;;;;;;14.68;4.40;;;;;;;;;;5019283;28;20348;-71
2023/08/11 05:21:18;;;;;;;13.50;4.22;;;;;;;;;;5016201;28;20499;-70
2023/08/11 05:23:44;;;;;;;15.20;4.20;;;;;;;;;;5002399;28;20031;-70
2023/08/11 05:26:10;;;;;;;14.48;3.75;;;;;;;;;;5000667;28;20068;-70
2023/08/11 05:28:36;;;;;;;12.20;3.95;;;;;;;;;;5018303;28;20468;-71
2023/08/11 05:31:04;;;;;;;12.00;3.92;;;;;;;;;;5014729;28;20033;-71
2023/08/11 05:33:31;;;;;;;11.77;3.50;;;;;;;;;;5020130;28;20051;-70
2023/08/11 05:35:57;;;;;;;14.35;4.00;;;;;;;;;;5014729;28;20178;-71
2023/08/11 05:38:23;;;;;;;15.52;4.60;;;;;;;;;;5020498;28;20482;-71
2023/08/11 05:40:49;;;;;;;14.23;4.07;;;;;;;;;;5007109;28;20471;-70
2023/08/11 05:43:16;;;;;;;12.65;4.53;;;;;;;;;;5020512;28;20032;-71
2023/08/11 05:45:42;;;;;;;14.90;4.45;;;;;;;;;;5018286;28;20439;-70
2023/08/11 05:48:08;;;;;;;18.48;4.53;;;;;;;;;;5001315;28;20039;-69
2023/08/11 05:50:34;;;;;;;16.95;4.22;;;;;;;;;;5006905;28;20573;-70
2023/08/11 05:53:00;;;;;;;14.48;4.32;;;;;;;;;;5019781;28;20238;-70
2023/08/11 05:55:26;;;;;;;12.32;4.35;;;;;;;;;;5023500;28;20029;-70
2023/08/11 05:57:53;;;;;;;11.60;3.50;;;;;;;;;;5022652;28;20029;-71
2023/08/11 06:00:19;;;;;;;13.73;4.32;;;;;;;;;;5018416;28;20025;-71
2023/08/11 06:02:46;;;;;;;12.75;4.72;;;;;;;;;;5005221;28;20033;-71
2023/08/11 06:05:12;;;;;;;14.80;4.57;;;;;;;;;;5017979;28;20253;-71
2023/08/11 06:07:39;;;;;;;15.45;4.38;;;;;;;;;;5002894;28;20029;-71
2023/08/11 06:10:05;;;;;;;14.82;4.38;;;;;;;;;;5001484;28;20025;-71
2023/08/11 06:12:32;;;;;;;15.23;4.40;;;;;;;;;;5021962;28;20526;-71
2023/08/11 06:14:58;;;;;;;16.98;4.40;;;;;;;;;;5018433;28;20029;-71
2023/08/11 06:17:25;;;;;;;14.18;4.40;;;;;;;;;;5020497;28;20466;-71
2023/08/11 06:19:51;;;;;;;17.10;4.43;;;;;;;;;;5022667;28;20029;-71
2023/08/11 06:22:17;;;;;;;18.48;4.80;;;;;;;;;;5020168;28;20033;-71
2023/08/11 06:24:44;;;;;;;14.80;4.35;;;;;;;;;;5024521;28;20029;-71
2023/08/11 06:27:10;;;;;;;18.08;4.72;;;;;;;;;;5020457;28;20032;-70
2023/08/11 06:29:36;;;;;;;16.35;4.70;;;;;;;;;;5022850;28;20028;-71
2023/08/11 06:32:02;;;;;;;17.95;4.65;;;;;;;;;;5021007;28;20056;-71
2023/08/11 06:34:28;;;;;;;11.15;4.07;;;;;;;;;;5023182;28;20155;-70
2023/08/11 06:36:55;;;;;;;16.02;4.78;;;;;;;;;;5018317;28;20499;-71
2023/08/11 06:39:21;;;;;;;16.10;4.50;;;;;;;;;;5020229;28;20839;-71
2023/08/11 06:41:47;;;;;;;12.45;4.45;;;;;;;;;;5023153;28;20034;-71
2023/08/11 06:44:13;;;;;;;13.90;4.38;;;;;;;;;;5018652;28;20447;-70
2023/08/11 06:46:39;;;;;;;14.70;4.47;;;;;;;;;;5024964;28;20067;-71
2023/08/11 06:49:06;;;;;;;14.65;4.28;;;;;;;;;;5018393;28;20021;-71
2023/08/11 06:51:32;;;;;;;21.73;5.30;;;;;;;;;;5018700;28;20317;-71
2023/08/11 06:53:58;;;;;;;17.55;5.10;;;;;;;;;;5000028;28;20036;-70
2023/08/11 06:56:24;;;;;;;19.35;5.45;;;;;;;;;;5022989;28;20033;-72
2023/08/11 06:58:52;;;;;;;16.17;5.07;;;;;;;;;;5017534;28;20068;-72
2023/08/11 07:01:18;;;;;;;13.98;4.63;;;;;;;;;;5019042;28;20017;-71
2023/08/11 07:03:45;;;;;;;18.20;5.18;;;;;;;;;;5018286;28;20219;-71
2023/08/11 07:06:11;;;;;;;14.20;4.40;;;;;;;;;;5020363;28;20037;-71
2023/08/11 07:08:37;;;;;;;17.23;5.20;;;;;;;;;;5018663;28;20056;-72
2023/08/11 07:11:03;;;;;;;12.90;4.43;;;;;;;;;;5016701;28;20106;-72
2023/08/11 07:13:29;;;;;;;13.70;4.38;;;;;;;;;;5018933;28;20044;-72
2023/08/11 07:15:56;;;;;;;13.27;3.80;;;;;;;;;;5019950;28;20021;-71
2023/08/11 07:18:23;;;;;;;13.15;4.05;;;;;;;;;;5004177;28;20032;-72
2023/08/11 07:20:49;;;;;;;14.65;4.50;;;;;;;;;;5001557;28;20025;-72
2023/08/11 07:23:16;;;;;;;13.88;4.45;;;;;;;;;;5018760;28;20044;-72
2023/08/11 07:25:42;;;;;;;15.27;4.53;;;;;;;;;;5020427;28;20021;-71
2023/08/11 07:28:09;;;;;;;14.70;4.80;;;;;;;;;;5017272;28;20561;-72
2023/08/11 07:30:36;;;;;;;13.52;4.10;;;;;;;;;;5025380;28;20028;-72
2023/08/11 07:33:02;;;;;;;15.57;4.45;;;;;;;;;;5015758;28;20034;-71
2023/08/11 07:35:29;;;;;;;15.27;4.60;;;;;;;;;;5017315;28;20403;-72
2023/08/11 07:37:55;;;;;;;14.45;4.65;;;;;;;;;;5019126;28;20029;-71
2023/08/11 07:40:21;;;;;;;13.07;4.20;;;;;;;;;;5019962;28;20495;-71
2023/08/11 07:42:47;;;;;;;15.07;4.28;;;;;;;;;;5022625;28;20134;-72
2023/08/11 07:45:14;;;;;;;16.10;4.50;;;;;;;;;;5020253;28;23039;-71
2023/08/11 07:47:40;;;;;;;14.85;4.95;;;;;;;;;;5018907;28;20479;-71
2023/08/11 07:50:07;;;;;;;16.05;4.63;;;;;;;;;;5021376;28;20514;-70
2023/08/11 07:52:33;;;;;;;15.80;4.68;;;;;;;;;;5020841;28;20108;-71
2023/08/11 07:54:59;;;;;;;14.43;4.90;;;;;;;;;;5018991;28;20709;-71
2023/08/11 07:57:25;;;;;;;15.23;4.80;;;;;;;;;;5005129;28;20028;-72
2023/08/11 07:59:51;;;;;;;16.25;4.75;;;;;;;;;;5020124;28;20547;-71
2023/08/11 08:02:18;;;;;;;15.23;4.47;;;;;;;;;;5021792;28;20526;-71
2023/08/11 08:04:44;;;;;;;14.15;4.65;;;;;;;;;;5021746;28;20572;-71
2023/08/11 08:07:10;;;;;;;13.73;4.70;;;;;;;;;;5018478;28;20500;-71
2023/08/11 08:09:38;;;;;;;12.80;4.03;;;;;;;;;;5020926;28;20079;-71
2023/08/11 08:12:05;;;;;;;14.20;5.10;;;;;;;;;;5026491;28;20028;-71
2023/08/11 08:14:31;;;;;;;18.73;4.55;;;;;;;;;;5023316;28;20463;-72
2023/08/11 08:17:01;;;;;;;13.55;4.18;;;;;;;;;;5005613;28;20554;-71
2023/08/11 08:19:28;;;;;;;15.60;4.65;;;;;;;;;;5025622;28;20017;-71
2023/08/11 08:21:54;;;;;;;16.08;4.45;;;;;;;;;;5025009;28;20033;-71
2023/08/11 08:24:20;;;;;;;18.38;4.60;;;;;;;;;;5024985;28;20041;-71
2023/08/11 08:26:48;;;;;;;14.55;4.80;;;;;;;;;;5026211;28;20040;-71
2023/08/11 08:29:14;;;;;;;13.52;4.50;;;;;;;;;;5022267;28;21683;-71
2023/08/11 08:31:40;;;;;;;17.33;4.30;;;;;;;;;;5022771;28;20032;-72
2023/08/11 08:34:07;;;;;;;16.00;5.05;;;;;;;;;;5020895;28;20053;-72
2023/08/11 08:36:33;;;;;;;18.13;5.50;;;;;;;;;;5005505;28;21008;-71
2023/08/11 08:38:59;;;;;;;16.75;5.20;;;;;;;;;;5020685;28;20035;-71
2023/08/11 08:41:30;;;;;;;16.70;4.85;;;;;;;;;;5008186;28;20029;-70
2023/08/11 08:43:58;;;;;;;17.42;4.82;;;;;;;;;;5001036;28;20029;-70
2023/08/11 08:46:30;;;;;;;14.82;4.80;;;;;;;;;;5023281;28;20029;-70
2023/08/11 08:48:59;;;;;;;13.65;4.13;;;;;;;;;;5016754;28;20479;-70
2023/08/11 08:51:25;;;;;;;14.57;5.32;;;;;;;;;;5006759;28;20064;-70
2023/08/11 08:53:52;;;;;;;18.05;5.15;;;;;;;;;;5018266;28;20128;-70
2023/08/11 08:56:18;;;;;;;16.15;5.03;;;;;;;;;;5020660;28;20304;-71
2023/08/11 08:58:44;;;;;;;16.27;5.03;;;;;;;;;;5019617;28;20163;-70
2023/08/11 09:01:11;;;;;;;14.13;4.60;;;;;;;;;;4999052;28;20448;-71
2023/08/11 09:03:37;;;;;;;18.52;5.00;;;;;;;;;;5025271;28;20063;-71
2023/08/11 09:06:05;;;;;;;18.17;4.63;;;;;;;;;;5016197;28;20534;-71
2023/08/11 09:08:38;;;;;;;13.27;4.40;;;;;;;;;;5021231;28;20058;-69
2023/08/11 09:11:05;;;;;;;16.48;4.75;;;;;;;;;;5020692;28;20128;-70
2023/08/11 09:13:35;;;;;;;13.90;4.38;;;;;;;;;;5017075;28;20491;-70
2023/08/11 09:16:02;;;;;;;13.93;4.22;;;;;;;;;;5017460;28;20037;-72
2023/08/11 09:18:28;;;;;;;13.68;4.50;;;;;;;;;;5014587;28;20021;-71
2023/08/11 09:20:54;;;;;;;14.75;4.22;;;;;;;;;;5014827;28;20060;-71
2023/08/11 09:23:20;;;;;;;17.85;4.70;;;;;;;;;;5003533;28;20032;-71
2023/08/11 09:25:46;;;;;;;15.82;4.70;;;;;;;;;;5021226;28;20218;-70
2023/08/11 09:28:13;;;;;;;15.45;4.82;;;;;;;;;;5019261;28;20037;-71
2023/08/11 09:30:39;;;;;;;12.23;3.92;;;;;;;;;;5019280;28;20134;-72
2023/08/11 09:33:08;;;;;;;14.88;4.57;;;;;;;;;;5015148;28;20029;-72
2023/08/11 09:35:35;;;;;;;16.10;4.80;;;;;;;;;;5003385;28;20049;-71
2023/08/11 09:38:01;;;;;;;17.08;5.28;;;;;;;;;;5017802;28;20444;-71
2023/08/11 09:40:27;;;;;;;17.80;5.47;;;;;;;;;;5018502;28;20064;-71
2023/08/11 09:42:55;;;;;;;16.08;5.20;;;;;;;;;;5019141;28;20656;-70
2023/08/11 09:45:21;;;;;;;14.40;4.80;;;;;;;;;;5019054;28;20103;-74
2023/08/11 09:47:48;;;;;;;15.35;4.88;;;;;;;;;;5017967;28;20033;-71
2023/08/11 09:50:14;;;;;;;14.13;5.05;;;;;;;;;;4999291;28;21399;-71
2023/08/11 09:52:42;;;;;;;15.38;4.55;;;;;;;;;;5015948;28;20021;-71
2023/08/11 09:55:10;;;;;;;13.52;4.88;;;;;;;;;;5012875;28;20034;-71
2023/08/11 09:57:37;;;;;;;15.23;4.93;;;;;;;;;;5018487;28;20116;-72
2023/08/11 10:00:11;;;;;;;16.38;4.93;;;;;;;;;;5014930;28;20246;-71
2023/08/11 10:02:39;;;;;;;11.02;4.20;;;;;;;;;;5014959;28;20056;-71
2023/08/11 10:05:08;;;;;;;16.30;4.90;;;;;;;;;;5019702;28;20688;-72
2023/08/11 10:07:37;;;;;;;15.77;4.80;;;;;;;;;;5021476;28;20109;-70
2023/08/11 10:10:07;;;;;;;13.45;4.45;;;;;;;;;;5017252;28;20449;-71
2023/08/11 10:12:36;;;;;;;15.27;4.65;;;;;;;;;;5019203;28;20056;-70
2023/08/11 10:15:03;;;;;;;18.60;5.25;;;;;;;;;;5014329;28;20029;-70
2023/08/11 10:17:30;;;;;;;14.77;4.47;;;;;;;;;;5018376;28;20013;-70
2023/08/11 10:19:56;;;;;;;14.68;4.28;;;;;;;;;;5002033;28;20114;-72
2023/08/11 10:22:22;;;;;;;16.33;4.90;;;;;;;;;;5018650;28;20294;-70
2023/08/11 10:24:49;;;;;;;11.93;4.28;;;;;;;;;;5018968;28;20090;-72
2023/08/11 10:27:15;;;;;;;14.40;4.13;;;;;;;;;;5000819;28;20211;-71
2023/08/11 10:29:42;;;;;;;14.57;4.70;;;;;;;;;;5021480;28;20542;-73
2023/08/11 10:32:10;;;;;;;14.85;4.35;;;;;;;;;;5015668;28;20107;-70
2023/08/11 10:34:36;;;;;;;13.35;4.32;;;;;;;;;;5025215;28;20177;-72
2023/08/11 10:37:02;;;;;;;16.55;5.18;;;;;;;;;;5016909;28;20714;-73
2023/08/11 10:39:28;;;;;;;15.75;5.05;;;;;;;;;;5022341;28;20029;-71
2023/08/11 10:41:57;;;;;;;15.60;4.65;;;;;;;;;;5000712;28;20045;-73
2023/08/11 10:44:27;;;;;;;11.82;4.45;;;;;;;;;;5022604;28;20064;-71
2023/08/11 10:46:53;;;;;;;14.25;4.30;;;;;;;;;;5018840;28;20036;-73
2023/08/11 10:49:31;;;;;;;12.98;4.30;;;;;;;;;;5023896;28;20031;-73
2023/08/11 10:51:59;;;;;;;15.82;4.45;;;;;;;;;;4995125;28;20064;-71
2023/08/11 10:54:26;;;;;;;14.07;4.18;;;;;;;;;;5000657;28;20079;-71
2023/08/11 10:56:53;;;;;;;13.45;4.13;;;;;;;;;;5022560;28;20043;-71
2023/08/11 10:59:19;;;;;;;13.02;4.10;;;;;;;;;;5014793;28;20406;-71
2023/08/11 11:01:49;;;;;;;16.77;4.72;;;;;;;;;;5001050;28;20034;-71
2023/08/11 11:04:16;;;;;;;16.10;4.70;;;;;;;;;;5017642;28;20503;-72
2023/08/11 11:06:44;;;;;;;14.70;4.63;;;;;;;;;;5001098;28;20379;-72
2023/08/11 11:09:10;;;;;;;13.55;5.20;;;;;;;;;;5003834;28;20040;-70
2023/08/11 11:11:37;;;;;;;12.38;4.22;;;;;;;;;;5020109;28;20013;-71
2023/08/11 11:14:04;;;;;;;12.88;4.65;;;;;;;;;;5017985;28;20171;-72
2023/08/11 11:16:32;;;;;;;14.88;4.55;;;;;;;;;;5017647;28;20076;-72
2023/08/11 11:18:59;;;;;;;17.13;4.97;;;;;;;;;;5016229;28;20024;-71
2023/08/11 11:21:25;;;;;;;18.73;4.60;;;;;;;;;;5021792;28;20039;-71
2023/08/11 11:23:52;;;;;;;17.42;4.82;;;;;;;;;;5020804;28;20461;-71
2023/08/11 11:26:22;;;;;;;12.52;4.10;;;;;;;;;;5018896;28;20309;-74
2023/08/11 11:28:49;;;;;;;16.85;4.32;;;;;;;;;;5019508;28;20040;-73
2023/08/11 11:31:16;;;;;;;12.13;3.95;;;;;;;;;;5019431;28;20024;-72
2023/08/11 11:33:42;;;;;;;10.93;4.30;;;;;;;;;;5017315;28;20029;-72
2023/08/11 11:36:09;;;;;;;11.88;4.28;;;;;;;;;;5002378;28;20048;-72
2023/08/11 11:38:35;;;;;;;11.18;3.75;;;;;;;;;;5018817;28;20120;-73
2023/08/11 11:41:01;;;;;;;17.70;5.55;;;;;;;;;;5019625;28;20035;-72
2023/08/11 11:43:28;;;;;;;19.48;8.13;;;;;;;;;;5020136;28;20361;-73
2023/08/11 11:45:54;;;;;;;15.00;5.10;;;;;;;;;;5024078;28;20028;-73
2023/08/11 11:48:21;;;;;;;15.35;5.18;;;;;;;;;;5024880;28;20094;-70
2023/08/11 11:50:47;;;;;;;13.85;4.25;;;;;;;;;;5025180;28;20037;-73
2023/08/11 11:53:14;;;;;;;13.70;4.72;;;;;;;;;;5017471;28;20071;-73
2023/08/11 11:55:47;;;;;;;16.75;4.05;;;;;;;;;;5007019;28;20025;-72
2023/08/11 11:58:15;;;;;;;14.75;4.63;;;;;;;;;;5018005;28;20382;-72
2023/08/11 12:00:43;;;;;;;13.90;4.57;;;;;;;;;;5009542;28;20459;-73
2023/08/11 12:03:09;;;;;;;13.75;4.03;;;;;;;;;;5019548;28;20330;-73
2023/08/11 12:05:35;;;;;;;11.25;4.72;;;;;;;;;;5024929;28;20038;-73
2023/08/11 12:08:17;;;;;;;22.25;4.60;;;;;;;;;;5006106;28;20091;-72
2023/08/11 12:10:45;;;;;;;14.25;4.55;;;;;;;;;;5010496;28;20025;-71
2023/08/11 12:13:12;;;;;;;14.82;4.45;;;;;;;;;;5003347;28;20498;-72
2023/08/11 12:15:39;;;;;;;17.92;4.43;;;;;;;;;;5005777;28;20685;-72
2023/08/11 12:18:06;;;;;;;17.88;4.35;;;;;;;;;;5022566;28;20036;-72
2023/08/11 12:20:32;;;;;;;13.13;4.38;;;;;;;;;;5019355;28;20195;-72
2023/08/11 12:22:59;;;;;;;16.23;4.72;;;;;;;;;;5002282;28;20468;-72
2023/08/11 12:25:25;;;;;;;14.45;4.72;;;;;;;;;;4998197;28;20411;-72
2023/08/11 12:27:54;;;;;;;11.90;4.30;;;;;;;;;;5011138;28;20088;-71
2023/08/11 12:30:20;;;;;;;15.63;4.50;;;;;;;;;;4993975;28;20116;-72
2023/08/11 12:32:46;;;;;;;26.38;5.75;;;;;;;;;;5013130;28;20039;-71
2023/08/11 12:35:13;;;;;;;15.52;5.22;;;;;;;;;;5009162;28;20084;-71
2023/08/11 12:37:39;;;;;;;12.13;4.40;;;;;;;;;;5013665;28;20025;-72
2023/08/11 12:40:09;;;;;;;15.98;5.75;;;;;;;;;;5010323;28;20480;-71
2023/08/11 12:42:36;;;;;;;13.73;5.47;;;;;;;;;;5010685;28;20107;-72
2023/08/11 12:45:03;;;;;;;14.68;5.93;;;;;;;;;;4989679;28;20821;-73
2023/08/11 12:47:29;;;;;;;16.58;6.50;;;;;;;;;;5013945;28;20033;-73
2023/08/11 12:49:56;;;;;;;15.88;6.53;;;;;;;;;;5008485;28;20033;-71
2023/08/11 12:52:22;;;;;;;21.83;5.68;;;;;;;;;;5015078;28;20557;-71
2023/08/11 12:54:49;;;;;;;15.00;4.65;;;;;;;;;;5011602;28;20029;-72
2023/08/11 12:57:15;;;;;;;10.35;4.15;;;;;;;;;;4994738;28;20595;-72
2023/08/11 12:59:42;;;;;;;12.88;4.20;;;;;;;;;;5015241;28;20372;-72
2023/08/11 13:02:08;;;;;;;13.82;4.50;;;;;;;;;;5014579;28;20044;-71
2023/08/11 13:04:34;;;;;;;14.63;6.97;;;;;;;;;;5012784;28;20418;-72
2023/08/11 13:07:00;;;;;;;15.63;7.03;;;;;;;;;;5013834;28;20048;-73
2023/08/11 13:09:27;;;;;;;14.00;5.28;;;;;;;;;;5014031;28;20225;-72
2023/08/11 13:11:53;;;;;;;13.18;4.53;;;;;;;;;;5012228;28;20511;-73
2023/08/11 13:14:19;;;;;;;15.60;5.88;;;;;;;;;;5015933;28;20133;-73
2023/08/11 13:16:46;;;;;;;12.10;5.20;;;;;;;;;;5012261;28;20045;-73
2023/08/11 13:19:13;;;;;;;12.43;4.90;;;;;;;;;;5010121;28;20375;-73
2023/08/11 13:21:39;;;;;;;12.38;4.75;;;;;;;;;;5011459;28;20028;-72
2023/08/11 13:24:05;;;;;;;13.73;4.60;;;;;;;;;;5006063;28;20037;-73
2023/08/11 13:26:32;;;;;;;12.02;4.18;;;;;;;;;;5009806;28;20037;-72
2023/08/11 13:28:58;;;;;;;11.55;4.22;;;;;;;;;;5009479;28;20033;-72
2023/08/11 13:31:25;;;;;;;12.55;4.20;;;;;;;;;;5013057;28;20029;-72
2023/08/11 13:33:51;;;;;;;12.38;4.40;;;;;;;;;;4996751;28;20660;-71
2023/08/11 13:36:17;;;;;;;12.50;4.65;;;;;;;;;;5010275;28;20493;-72
2023/08/11 13:38:43;;;;;;;13.65;4.70;;;;;;;;;;4996839;28;20467;-72
2023/08/11 13:41:10;;;;;;;10.93;4.45;;;;;;;;;;5007803;28;20033;-71
2023/08/11 13:43:37;;;;;;;12.15;4.30;;;;;;;;;;5014401;28;20052;-72
2023/08/11 13:46:03;;;;;;;12.35;4.40;;;;;;;;;;4992268;28;20398;-71
2023/08/11 13:48:30;;;;;;;10.35;3.75;;;;;;;;;;5012107;28;20044;-71
2023/08/11 13:50:56;;;;;;;12.70;4.20;;;;;;;;;;5011102;28;20551;-72
2023/08/11 13:53:23;;;;;;;12.73;4.20;;;;;;;;;;5013653;28;20797;-71
2023/08/11 13:55:49;;;;;;;10.48;3.58;;;;;;;;;;5013201;28;20095;-71
2023/08/11 13:58:15;;;;;;;14.75;4.53;;;;;;;;;;4991754;28;20515;-70
2023/08/11 14:00:41;;;;;;;10.55;3.78;;;;;;;;;;4995720;28;20083;-70
2023/08/11 14:03:07;;;;;;;13.57;4.00;;;;;;;;;;5008924;28;20036;-73
2023/08/11 14:05:34;;;;;;;12.93;4.13;;;;;;;;;;5012298;28;20072;-71
2023/08/11 14:08:00;;;;;;;12.68;4.07;;;;;;;;;;5006577;28;20183;-73
2023/08/11 14:10:26;;;;;;;10.55;4.07;;;;;;;;;;5012270;28;20021;-71
2023/08/11 14:12:53;;;;;;;12.02;4.07;;;;;;;;;;5009589;28;20037;-73
2023/08/11 14:15:19;;;;;;;12.23;3.90;;;;;;;;;;5014144;28;20060;-73
2023/08/11 14:17:45;;;;;;;12.13;4.03;;;;;;;;;;5013257;28;20041;-72
2023/08/11 14:20:12;;;;;;;15.50;3.92;;;;;;;;;;5011603;28;20467;-72
2023/08/11 14:22:38;;;;;;;12.57;3.90;;;;;;;;;;5012820;28;20385;-73
2023/08/11 14:25:04;;;;;;;17.48;4.13;;;;;;;;;;5009302;28;20025;-72
2023/08/11 14:27:31;;;;;;;12.10;3.90;;;;;;;;;;4993496;28;20044;-73